createdAt,value
2023-01-05T03:00:44.635Z,10.63
2023-01-05T03:08:57.754Z,22.45
2023-01-05T03:19:44.328Z,19.50
2023-01-05T03:44:41.221Z,14.77
2023-01-05T04:50:10.721Z,23.60
2023-01-05T04:56:37.721Z,18.42
2023-01-05T05:02:41.200Z,22.10
2023-01-05T06:00:28.377Z,22.48
2023-01-05T07:50:03.732Z,32.60
2023-01-05T08:31:03.147Z,19.92
2023-01-05T08:33:30.741Z,20.98
2023-01-05T08:41:39.513Z,23.33
2023-01-05T11:56:12.465Z,27.88
2023-01-05T12:23:22.548Z,20.40
2023-01-05T12:25:55.630Z,17.23
2023-01-05T12:28:40.486Z,17.08
2023-01-05T12:34:12.959Z,12.15
2023-01-05T12:36:40.269Z,15.43
2023-01-05T12:39:44.176Z,12.73
2023-01-05T12:42:28.922Z,17.13
2023-01-05T12:45:31.816Z,25.08
2023-01-05T12:48:14.354Z,18.92
2023-01-05T12:50:45.301Z,16.95
2023-01-05T12:53:35.772Z,26.25
2023-01-05T12:56:26.206Z,8.00
2023-01-05T12:59:11.668Z,18.25
2023-01-05T13:01:42.614Z,11.57
2023-01-05T13:04:46.827Z,18.50
2023-01-05T13:07:24.559Z,19.55
2023-01-05T13:10:02.944Z,16.98
2023-01-05T13:12:31.711Z,22.42
2023-01-05T13:15:14.810Z,20.55
2023-01-05T13:17:50.223Z,23.23
2023-01-05T13:20:34.678Z,22.08
2023-01-05T13:23:06.887Z,29.05
2023-01-05T13:25:40.014Z,22.05
2023-01-05T13:28:12.058Z,14.60
2023-01-05T13:30:44.264Z,15.68
2023-01-05T13:33:20.184Z,21.58
2023-01-05T13:36:01.310Z,14.32
2023-01-05T13:38:43.210Z,19.13
2023-01-05T13:41:40.691Z,12.95
2023-01-05T13:44:40.368Z,17.45
2023-01-05T13:47:23.796Z,21.55
2023-01-05T13:50:25.338Z,20.55
2023-01-05T13:55:28.684Z,19.42
2023-01-05T13:57:55.934Z,23.60
2023-01-05T14:00:25.340Z,25.92
2023-01-05T14:06:05.452Z,31.98
2023-01-05T14:08:43.935Z,27.70
2023-01-05T14:11:19.939Z,26.25
2023-01-05T14:16:39.665Z,26.55
2023-01-05T14:19:44.028Z,15.35
2023-01-05T14:28:31.773Z,20.38
2023-01-05T14:37:05.792Z,24.80
2023-01-05T14:48:31.498Z,30.23
2023-01-05T14:56:42.320Z,27.70
2023-01-05T15:13:49.527Z,26.23
2023-01-05T15:54:48.403Z,22.45
2023-01-05T15:57:24.037Z,22.42
2023-01-05T16:02:36.033Z,21.20
2023-01-05T16:33:36.779Z,22.02
2023-01-05T17:05:24.725Z,31.83
2023-01-05T17:19:03.805Z,33.17
2023-01-05T17:24:15.766Z,19.48
2023-01-05T17:26:45.465Z,22.65
2023-01-05T17:37:27.850Z,28.63
2023-01-05T17:45:30.058Z,38.97
2023-01-05T17:50:37.644Z,29.55
2023-01-05T17:55:45.983Z,27.95
2023-01-05T17:58:17.062Z,32.35
2023-01-05T18:06:07.038Z,30.50
2023-01-05T18:08:37.912Z,41.35
2023-01-05T18:13:51.216Z,38.25
2023-01-05T18:18:50.147Z,29.80
2023-01-05T18:21:17.779Z,26.40
2023-01-05T18:23:45.086Z,24.50
2023-01-05T18:26:23.662Z,31.80
2023-01-05T18:29:01.966Z,28.95
2023-01-05T18:36:40.432Z,28.30
2023-01-05T18:39:14.070Z,16.15
2023-01-05T18:49:29.974Z,16.63
2023-01-05T19:00:14.567Z,20.02
2023-01-05T19:07:53.511Z,9.13
2023-01-05T19:10:23.850Z,10.55
2023-01-05T19:15:38.123Z,7.63
2023-01-05T19:18:05.582Z,4.10
2023-01-05T19:20:32.588Z,8.55
2023-01-05T19:23:00.320Z,8.43
2023-01-05T19:25:27.373Z,4.20
2023-01-05T19:30:36.888Z,5.50
2023-01-05T19:33:03.679Z,6.82
2023-01-05T19:35:31.501Z,6.85
2023-01-05T19:38:00.422Z,10.65
2023-01-05T19:40:29.808Z,9.07
2023-01-05T19:43:02.960Z,8.63
2023-01-05T19:45:29.556Z,7.03
2023-01-05T19:47:56.123Z,12.45
2023-01-05T19:50:22.877Z,6.40
2023-01-05T19:52:49.948Z,13.23
2023-01-05T19:55:16.660Z,9.55
2023-01-05T20:00:18.866Z,6.30
2023-01-05T20:02:45.643Z,16.13
2023-01-05T20:05:14.219Z,10.75
2023-01-05T20:07:42.928Z,8.15
2023-01-05T20:10:09.758Z,10.88
2023-01-05T20:15:14.001Z,14.63
2023-01-05T20:17:42.224Z,13.95
2023-01-05T20:20:09.940Z,8.52
2023-01-05T20:22:36.774Z,10.13
2023-01-05T20:25:04.594Z,16.30
2023-01-05T20:30:16.596Z,21.60
2023-01-05T20:32:43.427Z,22.00
2023-01-05T20:35:11.664Z,28.00
2023-01-05T20:37:38.337Z,23.77
2023-01-05T20:40:06.070Z,18.45
2023-01-05T20:45:08.420Z,25.08
2023-01-05T20:47:46.697Z,28.83
2023-01-05T20:50:13.751Z,18.23
2023-01-05T20:52:40.810Z,30.73
2023-01-05T20:55:07.744Z,20.73
2023-01-05T21:00:11.199Z,22.48
2023-01-05T21:02:37.897Z,25.08
2023-01-05T21:05:04.839Z,23.55
2023-01-05T21:07:31.419Z,25.35
2023-01-05T21:09:58.889Z,32.28
2023-01-05T21:15:01.312Z,31.17
2023-01-05T21:17:29.339Z,18.02
2023-01-05T21:19:56.451Z,25.17
2023-01-05T21:22:23.031Z,29.58
2023-01-05T21:24:49.634Z,19.33
2023-01-05T21:30:03.839Z,26.42
2023-01-05T21:32:30.461Z,22.88
2023-01-05T21:34:57.163Z,22.55
2023-01-05T21:37:23.844Z,22.92
2023-01-05T21:39:50.491Z,18.70
2023-01-05T21:44:54.695Z,30.63
2023-01-05T21:47:21.375Z,20.35
2023-01-05T21:49:48.113Z,16.75
2023-01-05T21:52:33.643Z,21.92
2023-01-05T21:55:32.258Z,19.73
2023-01-05T21:57:58.977Z,13.80
2023-01-05T22:00:25.670Z,17.90
2023-01-05T22:02:52.261Z,18.52
2023-01-05T22:05:19.270Z,21.13
2023-01-05T22:07:46.115Z,20.17
2023-01-05T22:10:13.119Z,23.10
2023-01-05T22:12:39.751Z,20.40
2023-01-05T22:15:08.473Z,17.80
2023-01-05T22:17:35.221Z,10.25
2023-01-05T22:20:02.136Z,16.25
2023-01-05T22:22:28.771Z,8.20
2023-01-05T22:24:55.369Z,9.85
2023-01-05T22:27:22.088Z,11.77
2023-01-05T22:29:48.788Z,13.40
2023-01-05T22:32:15.425Z,9.38
2023-01-05T22:37:17.063Z,8.23
2023-01-05T22:39:43.774Z,7.80
2023-01-05T22:42:16.776Z,5.38
2023-01-05T22:44:43.364Z,7.95
2023-01-05T22:47:10.172Z,12.40
2023-01-05T22:49:36.861Z,9.13
2023-01-05T22:52:03.585Z,11.20
2023-01-05T22:54:31.562Z,6.68
2023-01-05T22:59:48.741Z,9.48
2023-01-05T23:02:15.516Z,8.25
2023-01-05T23:04:42.270Z,7.65
2023-01-05T23:07:09.059Z,11.80
2023-01-05T23:09:35.754Z,9.00
2023-01-05T23:14:36.583Z,12.70
2023-01-05T23:17:03.509Z,10.85
2023-01-05T23:19:30.215Z,12.75
2023-01-05T23:21:56.949Z,16.40
2023-01-05T23:24:23.776Z,9.68
2023-01-05T23:29:30.915Z,16.40
2023-01-05T23:31:58.261Z,13.70
2023-01-05T23:34:25.508Z,10.20
2023-01-05T23:36:52.168Z,14.57
2023-01-05T23:39:18.796Z,16.00
2023-01-05T23:44:28.500Z,15.32
2023-01-05T23:46:55.486Z,11.23
2023-01-05T23:49:22.161Z,13.43
2023-01-05T23:51:49.892Z,9.40
2023-01-05T23:54:17.073Z,12.23
2023-01-05T23:59:37.989Z,8.13
